Latest Weather Observations for Griffith

IDN60801

Issued at 11:13 am EST Saturday 5 September 2026 (issued every 10 minutes, with the page automatically refreshed every 10 minutes)

About weather observations | Map of weather stations | Latest weather observations for NSW | Other Formats
Station Details ID: 075041 Name: GRIFFITH AIRPORT AWS Lat: -34.25 Lon: 146.07 Height: 134.0 m
Data from the previous 72 hours. | See also: Recent months at Griffith
Date/Time
EST
Temp
°C
App
Temp
°C
Dew
Point
°C
Rel
Hum
%
Delta-T
°C
Wind Press
QNH
hPa
Press
MSL
hPa
Rain since
9am
mm
Dir  Spd
km/h
Gust
km/h
Spd
kts
Gust
kts
05/11:00am 18.6 14.3 12.1 66 3.6 W 26 35 14 19 1013.7 1013.7 0.0
05/10:30am 19.1 15.0 12.6 66 3.7 W 26 35 14 19 1013.9 1013.9 0.0
05/10:00am 19.3 16.3 12.1 63 4.0 W 19 26 10 14 1014.0 1014.0 0.0
05/09:30am 18.8 15.7 12.3 66 3.6 W 20 28 11 15 1013.8 1013.8 0.0
05/09:00am 18.9 14.4 11.5 62 4.1 WSW 26 33 14 18 1013.5 1013.5 0.0
05/08:30am 20.2 16.5 10.3 53 5.4 NNW 20 26 11 14 1012.5 1012.5 0.0
05/08:00am 19.8 16.3 10.8 56 4.9 N 20 26 11 14 1012.1 1012.1 0.0
05/07:30am 19.8 15.7 11.3 58 4.7 N 24 35 13 19 1011.6 1011.6 0.0
05/07:00am 19.4 16.6 11.4 60 4.4 NNW 17 28 9 15 1011.2 1011.2 0.0
05/06:30am 19.1 15.5 11.7 62 4.1 N 22 33 12 18 1011.2 1011.2 0.0
05/06:00am 17.9 13.8 11.5 66 3.5 N 24 32 13 17 1011.2 1011.2 0.0
05/05:30am 18.3 13.1 10.2 59 4.3 N 28 39 15 21 1011.1 1011.1 0.0
05/05:00am 18.6 13.5 10.7 60 4.3 N 28 43 15 23 1011.8 1011.8 0.0
05/04:36am 18.8 12.7 9.6 55 4.9 N 32 43 17 23 1011.8 1011.8 0.0
05/04:30am 19.3 13.1 9.2 52 5.4 N 32 43 17 23 1011.8 1011.8 0.0
05/04:26am 19.4 13.1 9.0 51 5.5 N 32 43 17 23 1011.7 1011.7 0.0
05/04:00am 18.4 14.4 8.1 51 5.3 N 19 24 10 13 1012.9 1012.9 0.0
05/03:30am 18.2 14.9 7.9 51 5.3 N 15 20 8 11 1012.9 1012.9 0.0
05/03:00am 16.0 13.6 8.7 62 3.8 N 11 17 6 9 1013.8 1013.8 0.0
05/02:30am 16.9 14.4 8.1 56 4.5 NNW 11 17 6 9 1015.0 1015.0 0.0
05/02:00am 16.4 14.5 7.6 56 4.4 N 7 11 4 6 1015.3 1015.3 0.0
05/01:30am 15.9 14.0 7.4 57 4.3 N 7 11 4 6 1015.5 1015.5 0.0
05/01:00am 13.7 13.2 7.9 68 2.9 CALM 0 7 0 4 1015.8 1015.7 0.0
05/12:30am 15.8 15.2 7.6 58 4.1 CALM 0 6 0 3 1016.2 1016.2 0.0
05/12:00am 15.9 14.7 7.9 59 4.0 NNW 4 7 2 4 1016.3 1016.3 0.0
 
Date/Time
EST
Temp
°C
App
Temp
°C
Dew
Point
°C
Rel
Hum
%
Delta-T
°C
Wind Press
QNH
hPa
Press
MSL
hPa
Rain since
9am
mm
Dir  Spd
km/h
Gust
km/h
Spd
kts
Gust
kts
04/11:30pm 15.6 13.7 7.6 59 4.0 N 7 9 4 5 1016.3 1016.3 0.0
04/11:29pm 15.6 13.7 7.6 59 4.0 N 7 9 4 5 1016.3 1016.3 0.0
04/11:01pm 15.8 14.0 8.1 60 3.9 NNE 7 9 4 5 1016.8 1016.8 0.0
04/11:00pm 15.8 14.0 8.1 60 3.9 NNE 7 11 4 6 1016.8 1016.8 0.0
04/10:30pm 15.1 13.1 10.3 73 2.5 NE 11 13 6 7 1017.1 1017.1 0.0
04/10:00pm 16.1 14.0 9.8 66 3.3 NE 11 13 6 7 1017.3 1017.3 0.0
04/09:30pm 15.9 14.5 9.6 66 3.3 NE 7 9 4 5 1018.0 1018.0 0.0
04/09:00pm 15.1 14.0 10.1 72 2.6 NNE 6 9 3 5 1018.1 1018.1 0.0
04/08:30pm 15.3 15.3 9.7 69 2.9 CALM 0 0 0 0 1018.4 1018.4 0.0
04/08:00pm 16.8 15.9 9.2 61 4.0 NW 4 6 2 3 1018.2 1018.2 0.0
04/07:30pm 17.3 15.4 9.0 58 4.3 NNW 9 13 5 7 1018.1 1018.1 0.0
04/07:00pm 17.9 15.5 8.5 54 4.9 N 11 13 6 7 1017.6 1017.6 0.0
04/06:30pm 18.8 15.7 8.7 52 5.3 NNE 15 19 8 10 1017.2 1017.2 0.0
04/06:00pm 18.8 17.4 9.6 55 4.9 NNE 7 9 4 5 1018.1 1018.1 0.0
04/05:30pm 19.8 17.5 9.1 50 5.7 N 11 13 6 7 1018.2 1018.2 0.0
04/05:00pm 20.7 17.9 8.7 46 6.3 NNW 13 19 7 10 1018.4 1018.4 0.0
04/04:30pm 20.9 16.7 7.5 42 6.9 NW 19 26 10 14 1018.7 1018.7 0.0
04/04:00pm 21.5 17.5 8.1 42 7.0 NNW 19 28 10 15 1018.6 1018.6 0.0
04/03:30pm 21.2 17.1 7.8 42 7.0 NNW 19 30 10 16 1018.8 1018.8 0.0
04/03:00pm 22.1 18.6 8.9 43 7.1 NNW 17 30 9 16 1018.5 1018.5 0.0
04/02:30pm 21.5 18.4 8.7 44 6.8 N 15 32 8 17 1018.4 1018.4 0.0
04/02:00pm 20.7 17.2 8.7 46 6.3 NNW 17 32 9 17 1018.7 1018.7 0.0
04/01:30pm 21.6 18.9 8.8 44 6.8 NNW 13 24 7 13 1019.0 1019.0 0.0
04/01:00pm 19.9 16.7 8.3 47 6.0 NNW 15 28 8 15 1019.5 1019.5 0.0
04/12:30pm 20.3 16.7 8.3 46 6.3 NW 17 24 9 13 1020.1 1020.1 0.0
04/12:00pm 21.1 17.8 9.4 47 6.3 N 17 30 9 16 1020.4 1020.4 0.0
04/11:30am 19.4 16.4 9.3 52 5.4 NNW 15 24 8 13 1021.0 1021.0 0.0
04/11:00am 19.3 17.3 10.0 55 5.0 NNW 11 19 6 10 1021.6 1021.6 0.0
04/10:30am 18.5 16.1 10.1 58 4.5 NW 13 17 7 9 1021.9 1021.9 0.0
04/10:00am 17.5 15.5 10.1 62 3.9 NW 11 17 6 9 1022.6 1022.7 0.0
04/09:30am 16.5 14.1 9.9 65 3.5 N 13 17 7 9 1022.8 1022.9 0.0
04/09:00am 15.0 12.1 9.6 70 2.8 N 15 20 8 11 1023.0 1023.1 0.0
04/08:30am 12.7 10.8 9.0 78 1.9 NNW 9 11 5 6 1022.7 1022.8 0.0
04/08:14am 11.6 9.7 9.0 84 1.3 NW 9 13 5 7 1022.5 1022.6 0.0
04/08:00am 10.5 9.3 9.4 93 0.6 NW 6 9 3 5 1022.3 1022.3 0.0
04/07:38am 8.3 6.5 7.9 97 0.2 W 7 11 4 6 1022.1 1022.1 0.0
04/07:30am 7.8 5.9 7.5 98 0.1 W 7 11 4 6 1022.2 1022.2 0.0
04/07:25am 7.6 6.2 7.3 98 0.1 NNW 4 11 2 6 1022.2 1022.2 0.0
04/07:00am 5.7 4.6 5.3 97 0.2 CALM 0 0 0 0 1021.4 1021.4 0.0
04/06:30am 5.4 4.3 5.0 97 0.2 CALM 0 0 0 0 1021.2 1021.2 0.0
04/06:00am 5.1 3.9 4.5 96 0.3 CALM 0 0 0 0 1021.0 1021.0 0.0
04/05:30am 5.3 4.1 4.7 96 0.3 CALM 0 0 0 0 1020.9 1020.9 0.0
04/05:00am 5.6 3.3 4.9 95 0.3 W 6 7 3 4 1020.9 1020.9 0.0
04/04:30am 6.2 4.0 5.5 95 0.3 WSW 6 7 3 4 1020.7 1020.7 0.0
04/04:00am 6.4 4.3 5.7 95 0.3 WSW 6 7 3 4 1020.6 1020.6 0.0
04/03:30am 6.6 4.5 5.7 94 0.4 WSW 6 7 3 4 1020.6 1020.6 0.0
04/03:00am 7.0 4.9 5.9 93 0.5 WSW 6 7 3 4 1020.8 1020.8 0.0
04/02:30am 7.3 5.3 6.4 94 0.4 W 6 6 3 3 1021.0 1021.0 0.0
04/02:00am 6.9 6.0 6.0 94 0.4 CALM 0 0 0 0 1021.2 1021.2 0.0
04/01:30am 6.9 6.0 6.2 95 0.3 CALM 0 0 0 0 1021.3 1021.3 0.0
04/01:00am 6.8 5.8 5.7 93 0.5 CALM 0 0 0 0 1021.4 1021.4 0.0
04/12:30am 6.9 5.9 5.7 92 0.5 CALM 0 0 0 0 1021.4 1021.4 0.0
04/12:00am 7.0 6.0 5.8 92 0.5 CALM 0 0 0 0 1021.5 1021.5 0.0
 
Date/Time
EST
Temp
°C
App
Temp
°C
Dew
Point
°C
Rel
Hum
%
Delta-T
°C
Wind Press
QNH
hPa
Press
MSL
hPa
Rain since
9am
mm
Dir  Spd
km/h
Gust
km/h
Spd
kts
Gust
kts
03/11:30pm 7.2 6.2 5.8 91 0.6 CALM 0 0 0 0 1021.7 1021.7 0.0
03/11:00pm 7.8 7.0 6.7 93 0.5 CALM 0 0 0 0 1021.7 1021.7 0.0
03/10:30pm 7.9 7.1 6.4 90 0.7 CALM 0 0 0 0 1021.8 1021.8 0.0
03/10:00pm 8.6 7.8 6.4 86 1.0 CALM 0 0 0 0 1021.9 1021.9 0.0
03/09:30pm 9.3 8.2 6.9 85 1.1 N 2 7 1 4 1021.9 1021.9 0.0
03/09:00pm 8.8 6.8 6.3 84 1.2 NE 6 7 3 4 1021.6 1021.6 0.0
03/08:30pm 10.3 8.6 7.4 82 1.4 NNW 6 9 3 5 1021.3 1021.3 0.0
03/08:00pm 11.0 10.4 7.5 79 1.7 CALM 0 0 0 0 1021.0 1021.0 0.0
03/07:30pm 13.1 12.7 8.2 72 2.4 CALM 0 0 0 0 1020.6 1020.6 0.0
03/07:00pm 15.1 13.7 8.8 66 3.2 NW 6 7 3 4 1020.3 1020.3 0.0
03/06:30pm 16.1 14.2 9.1 63 3.6 W 9 11 5 6 1020.1 1020.1 0.0
03/06:00pm 16.4 14.1 8.9 61 3.9 W 11 15 6 8 1019.7 1019.7 0.0
03/05:30pm 16.6 13.1 8.6 59 4.1 WSW 17 24 9 13 1019.4 1019.4 0.0
03/05:00pm 17.3 14.2 8.7 57 4.4 W 15 24 8 13 1019.0 1019.0 0.0
03/04:30pm 17.7 14.6 8.8 56 4.6 WSW 15 22 8 12 1018.6 1018.6 0.0
03/04:00pm 18.3 14.8 8.6 53 5.0 WSW 17 26 9 14 1018.4 1018.4 0.0
03/03:30pm 17.4 13.8 8.5 56 4.6 SW 17 28 9 15 1018.2 1018.2 0.0
03/03:00pm 18.0 13.9 8.6 54 4.9 WSW 20 30 11 16 1018.2 1018.2 0.0
03/02:30pm 18.6 14.5 8.8 53 5.1 W 20 32 11 17 1018.0 1018.0 0.0
03/02:00pm 17.4 13.1 7.7 53 4.9 WSW 20 35 11 19 1018.1 1018.1 0.0
03/01:30pm 17.8 13.6 8.4 54 4.9 W 20 33 11 18 1018.2 1018.2 0.0
03/01:00pm 16.7 12.3 7.4 54 4.7 W 20 30 11 16 1018.4 1018.4 0.0
03/12:30pm 17.0 12.1 7.1 52 5.0 W 22 30 12 16 1018.5 1018.5 0.0
03/12:00pm 16.9 11.6 6.7 51 5.1 W 24 33 13 18 1018.6 1018.6 0.0
03/11:30am 15.9 10.2 6.6 54 4.6 WSW 26 33 14 18 1018.8 1018.8 0.0
03/11:00am 15.6 10.0 5.2 50 5.0 WSW 24 33 13 18 1018.7 1018.7 0.0
03/10:30am 14.9 9.6 6.7 58 4.0 WSW 24 33 13 18 1018.8 1018.8 0.0
03/10:00am 14.3 9.5 7.4 63 3.4 WSW 22 32 12 17 1018.6 1018.6 0.0
03/09:30am 13.8 8.9 7.1 64 3.3 WSW 22 32 12 17 1018.7 1018.7 0.0
03/09:00am 13.3 8.7 8.2 71 2.5 WSW 22 30 12 16 1018.4 1018.4 0.0
03/08:30am 12.2 8.6 8.3 77 1.9 W 17 24 9 13 1018.0 1018.0 0.0
03/08:00am 11.4 8.2 8.6 83 1.4 WSW 15 22 8 12 1017.3 1017.3 0.0
03/07:30am 10.9 8.8 9.7 92 0.6 W 11 15 6 8 1016.6 1016.6 0.0
03/07:00am 10.8 8.3 9.6 92 0.6 W 13 17 7 9 1015.9 1015.8 0.0
03/06:30am 11.1 8.3 9.9 92 0.6 WSW 15 20 8 11 1015.2 1015.2 0.0
03/06:02am 12.0 8.7 10.9 93 0.6 WSW 19 26 10 14 1014.5 1014.5 0.0
03/06:00am 12.1 8.8 11.0 93 0.6 WSW 19 26 10 14 1014.5 1014.5 0.0
03/05:30am 12.6 9.2 11.3 92 0.7 WSW 20 28 11 15 1013.6 1013.6 0.0
03/05:18am 13.1 9.5 11.8 92 0.7 WSW 22 28 12 15 1013.6 1013.6 0.0
03/05:00am 13.1 10.4 11.7 91 0.8 WSW 17 24 9 13 1013.0 1013.0 0.0
03/04:33am 13.8 11.4 12.5 92 0.7 WSW 17 22 9 12 1012.4 1012.4 0.0
03/04:30am 13.9 11.5 12.8 93 0.6 WSW 17 24 9 13 1012.4 1012.4 0.0
03/04:19am 14.3 11.5 13.2 93 0.6 WSW 20 30 11 16 1012.3 1012.3 0.0
03/04:14am 14.5 11.8 13.4 93 0.6 WSW 20 30 11 16 1012.2 1012.2 0.0
03/04:04am 14.9 11.5 13.8 93 0.6 WSW 24 32 13 17 1012.0 1012.0 0.0
03/04:00am 14.9 11.9 13.8 93 0.6 SW 22 32 12 17 1012.0 1012.0 0.0
03/03:30am 14.6 11.6 13.6 94 0.6 SW 22 30 12 16 1011.6 1011.6 0.0
03/03:00am 15.0 12.8 13.2 89 1.0 SSW 17 22 9 12 1010.7 1010.7 0.0
03/02:30am 15.3 12.5 13.2 87 1.2 SSW 20 26 11 14 1010.7 1010.7 0.0
03/02:00am 15.8 14.8 12.4 80 1.9 SSW 9 13 5 7 1010.7 1010.7 0.0
03/01:30am 15.9 14.6 12.5 80 1.9 S 11 13 6 7 1010.5 1010.5 0.0
03/01:00am 15.0 13.6 12.1 83 1.6 S 11 13 6 7 1009.9 1009.9 0.0
03/12:30am 16.3 15.8 12.7 79 2.0 ENE 7 9 4 5 1010.3 1010.3 0.0
03/12:00am 16.3 15.1 12.7 79 2.0 NNE 11 13 6 7 1011.1 1011.1 0.0
 
Date/Time
EST
Temp
°C
App
Temp
°C
Dew
Point
°C
Rel
Hum
%
Delta-T
°C
Wind Press
QNH
hPa
Press
MSL
hPa
Rain since
9am
mm
Dir  Spd
km/h
Gust
km/h
Spd
kts
Gust
kts
02/11:30pm 15.8 16.9 13.5 86 1.3 CALM 0 0 0 0 1011.7 1011.7 0.0
02/11:00pm 16.2 16.2 13.7 85 1.4 SSW 6 9 3 5 1012.2 1012.2 0.0
02/10:30pm 15.9 15.6 13.4 85 1.4 E 7 11 4 6 1012.3 1012.3 0.0
02/10:00pm 16.5 17.4 12.8 79 2.1 CALM 0 0 0 0 1012.5 1012.5 0.0
02/09:30pm 18.3 18.7 11.1 63 3.9 CALM 0 0 0 0 1012.8 1012.8 0.0
02/09:00pm 17.4 18.3 12.9 75 2.5 CALM 0 0 0 0 1013.1 1013.1 0.0
02/08:30pm 17.9 18.0 12.8 72 2.9 SW 4 9 2 5 1013.0 1013.0 0.0
02/08:00pm 17.4 17.1 13.3 77 2.3 NE 7 9 4 5 1012.9 1012.9 0.0
02/07:30pm 17.9 19.2 14.2 79 2.1 CALM 0 0 0 0 1013.2 1013.2 0.0
02/07:00pm 18.6 19.8 13.9 74 2.7 CALM 0 6 0 3 1013.2 1013.2 0.0
02/06:30pm 20.2 18.9 11.4 57 4.9 NNW 9 11 5 6 1013.3 1013.3 0.0
02/06:00pm 22.0 19.7 10.5 48 6.3 W 13 19 7 10 1013.0 1013.0 0.0
02/05:30pm 22.6 20.4 9.4 43 7.2 NW 11 15 6 8 1013.0 1013.0 0.0
02/05:00pm 24.5 22.2 8.9 37 8.5 WNW 11 13 6 7 1012.9 1012.9 0.0
02/04:30pm 25.1 20.9 8.1 34 9.1 WNW 20 28 11 15 1013.1 1013.1 0.0
02/04:00pm 25.8 20.9 8.3 33 9.5 W 24 32 13 17 1013.3 1013.3 0.0
02/03:30pm 24.5 20.1 7.6 34 9.0 WNW 20 28 11 15 1013.7 1013.7 0.0
02/03:00pm 25.9 20.1 8.0 32 9.6 WNW 28 39 15 21 1013.7 1013.7 0.0
02/02:30pm 25.9 21.9 8.4 33 9.5 WNW 19 33 10 18 1013.7 1013.7 0.0
02/02:00pm 25.5 21.5 8.9 35 9.1 WNW 20 28 11 15 1014.2 1014.2 0.0
02/01:30pm 24.9 20.1 8.8 36 8.7 NW 24 39 13 21 1014.6 1014.6 0.0
02/01:00pm 24.6 21.3 9.7 39 8.2 WNW 17 30 9 16 1015.3 1015.3 0.0
02/12:30pm 23.8 20.6 10.1 42 7.6 NNW 17 26 9 14 1016.0 1015.9 0.0
02/12:00pm 23.6 20.9 10.3 43 7.4 NNW 15 24 8 13 1016.4 1016.4 0.0
02/11:30am 23.1 21.9 10.2 44 7.1 NNW 7 15 4 8 1016.6 1016.6 0.0

Other formats

Comma delimited format used in spreadsheet applications
http://www.bom.gov.au/fwo/IDN60801/IDN60801.95704.axf

JavaScript Object Notation format (JSON) in row-major order
http://www.bom.gov.au/fwo/IDN60801/IDN60801.95704.json

Data quality

Most of these data are generated automatically and are frequently updated. Quality checks on data are not normally performed. It is possible for incorrect values to appear. Refer to information at About Latest Weather Observations and please check the disclaimer before using these data.